sensor_id;sensor_type;location;lat;lon;timestamp;P1;durP1;ratioP1;P2;durP2;ratioP2
17598;SDS011;8918;52.092;5.232;2023-05-07T00:00:32;19.95;;;17.05;;
17598;SDS011;8918;52.092;5.232;2023-05-07T00:02:59;19.67;;;16.67;;
17598;SDS011;8918;52.092;5.232;2023-05-07T00:05:25;20.67;;;16.85;;
17598;SDS011;8918;52.092;5.232;2023-05-07T00:07:50;19.65;;;16.63;;
17598;SDS011;8918;52.092;5.232;2023-05-07T00:10:17;18.90;;;16.88;;
17598;SDS011;8918;52.092;5.232;2023-05-07T00:12:43;17.65;;;15.80;;
17598;SDS011;8918;52.092;5.232;2023-05-07T00:15:09;17.85;;;15.68;;
17598;SDS011;8918;52.092;5.232;2023-05-07T00:17:37;19.63;;;15.15;;
17598;SDS011;8918;52.092;5.232;2023-05-07T00:20:03;16.63;;;14.20;;
17598;SDS011;8918;52.092;5.232;2023-05-07T00:22:30;16.08;;;14.43;;
17598;SDS011;8918;52.092;5.232;2023-05-07T00:24:57;18.48;;;14.90;;
17598;SDS011;8918;52.092;5.232;2023-05-07T00:27:22;16.67;;;14.48;;
17598;SDS011;8918;52.092;5.232;2023-05-07T00:29:48;15.57;;;13.52;;
17598;SDS011;8918;52.092;5.232;2023-05-07T00:32:14;15.15;;;13.60;;
17598;SDS011;8918;52.092;5.232;2023-05-07T00:34:39;16.20;;;13.90;;
17598;SDS011;8918;52.092;5.232;2023-05-07T00:37:05;15.73;;;13.55;;
17598;SDS011;8918;52.092;5.232;2023-05-07T00:39:32;15.27;;;13.68;;
17598;SDS011;8918;52.092;5.232;2023-05-07T00:41:58;14.90;;;13.38;;
17598;SDS011;8918;52.092;5.232;2023-05-07T00:44:25;14.27;;;12.80;;
17598;SDS011;8918;52.092;5.232;2023-05-07T00:46:51;14.63;;;12.98;;
17598;SDS011;8918;52.092;5.232;2023-05-07T00:49:18;14.18;;;12.57;;
17598;SDS011;8918;52.092;5.232;2023-05-07T00:51:44;13.82;;;12.43;;
17598;SDS011;8918;52.092;5.232;2023-05-07T00:54:10;16.10;;;12.77;;
17598;SDS011;8918;52.092;5.232;2023-05-07T00:56:37;13.57;;;12.20;;
17598;SDS011;8918;52.092;5.232;2023-05-07T00:59:04;13.38;;;11.98;;
17598;SDS011;8918;52.092;5.232;2023-05-07T01:01:30;13.38;;;11.68;;
17598;SDS011;8918;52.092;5.232;2023-05-07T01:03:56;13.50;;;12.10;;
17598;SDS011;8918;52.092;5.232;2023-05-07T01:06:24;13.52;;;12.13;;
17598;SDS011;8918;52.092;5.232;2023-05-07T01:08:50;13.93;;;11.80;;
17598;SDS011;8918;52.092;5.232;2023-05-07T01:11:17;14.32;;;11.77;;
17598;SDS011;8918;52.092;5.232;2023-05-07T01:13:45;13.70;;;11.57;;
17598;SDS011;8918;52.092;5.232;2023-05-07T01:16:11;12.40;;;11.20;;
17598;SDS011;8918;52.092;5.232;2023-05-07T01:18:37;12.50;;;11.20;;
17598;SDS011;8918;52.092;5.232;2023-05-07T01:21:03;12.25;;;10.98;;
17598;SDS011;8918;52.092;5.232;2023-05-07T01:23:30;12.73;;;11.40;;
17598;SDS011;8918;52.092;5.232;2023-05-07T01:25:56;12.25;;;10.73;;
17598;SDS011;8918;52.092;5.232;2023-05-07T01:28:22;13.38;;;11.82;;
17598;SDS011;8918;52.092;5.232;2023-05-07T01:30:48;13.07;;;11.68;;
17598;SDS011;8918;52.092;5.232;2023-05-07T01:33:18;13.38;;;11.23;;
17598;SDS011;8918;52.092;5.232;2023-05-07T01:35:47;12.65;;;11.35;;
17598;SDS011;8918;52.092;5.232;2023-05-07T01:38:15;12.50;;;10.40;;
17598;SDS011;8918;52.092;5.232;2023-05-07T01:40:43;12.32;;;11.00;;
17598;SDS011;8918;52.092;5.232;2023-05-07T01:43:08;12.50;;;10.93;;
17598;SDS011;8918;52.092;5.232;2023-05-07T01:45:35;14.50;;;12.05;;
17598;SDS011;8918;52.092;5.232;2023-05-07T01:48:02;13.57;;;12.18;;
17598;SDS011;8918;52.092;5.232;2023-05-07T01:50:28;13.43;;;12.02;;
17598;SDS011;8918;52.092;5.232;2023-05-07T01:52:55;12.88;;;11.30;;
17598;SDS011;8918;52.092;5.232;2023-05-07T01:55:21;13.55;;;12.15;;
17598;SDS011;8918;52.092;5.232;2023-05-07T01:57:47;12.95;;;11.38;;
17598;SDS011;8918;52.092;5.232;2023-05-07T02:00:13;12.98;;;11.60;;
17598;SDS011;8918;52.092;5.232;2023-05-07T02:02:39;16.30;;;12.63;;
17598;SDS011;8918;52.092;5.232;2023-05-07T02:05:04;13.75;;;11.95;;
17598;SDS011;8918;52.092;5.232;2023-05-07T02:07:30;15.55;;;11.75;;
17598;SDS011;8918;52.092;5.232;2023-05-07T02:09:56;12.63;;;11.00;;
17598;SDS011;8918;52.092;5.232;2023-05-07T02:12:22;12.60;;;11.30;;
17598;SDS011;8918;52.092;5.232;2023-05-07T02:14:48;12.85;;;11.55;;
17598;SDS011;8918;52.092;5.232;2023-05-07T02:17:13;12.98;;;11.65;;
17598;SDS011;8918;52.092;5.232;2023-05-07T02:19:39;12.35;;;11.05;;
17598;SDS011;8918;52.092;5.232;2023-05-07T02:22:04;12.68;;;11.48;;
17598;SDS011;8918;52.092;5.232;2023-05-07T02:24:30;12.80;;;11.50;;
17598;SDS011;8918;52.092;5.232;2023-05-07T02:26:56;11.65;;;10.52;;
17598;SDS011;8918;52.092;5.232;2023-05-07T02:29:22;14.73;;;11.40;;
17598;SDS011;8918;52.092;5.232;2023-05-07T02:31:47;13.18;;;11.55;;
17598;SDS011;8918;52.092;5.232;2023-05-07T02:34:17;12.73;;;11.43;;
17598;SDS011;8918;52.092;5.232;2023-05-07T02:36:43;13.23;;;11.48;;
17598;SDS011;8918;52.092;5.232;2023-05-07T02:39:09;14.00;;;11.57;;
17598;SDS011;8918;52.092;5.232;2023-05-07T02:41:34;14.32;;;11.73;;
17598;SDS011;8918;52.092;5.232;2023-05-07T02:44:00;14.00;;;12.48;;
17598;SDS011;8918;52.092;5.232;2023-05-07T02:46:26;13.95;;;12.10;;
17598;SDS011;8918;52.092;5.232;2023-05-07T02:48:51;12.63;;;11.38;;
17598;SDS011;8918;52.092;5.232;2023-05-07T02:51:21;13.52;;;12.13;;
17598;SDS011;8918;52.092;5.232;2023-05-07T02:53:47;12.98;;;11.68;;
17598;SDS011;8918;52.092;5.232;2023-05-07T02:56:13;14.55;;;12.18;;
17598;SDS011;8918;52.092;5.232;2023-05-07T02:58:38;15.02;;;12.38;;
17598;SDS011;8918;52.092;5.232;2023-05-07T03:01:04;13.90;;;11.68;;
17598;SDS011;8918;52.092;5.232;2023-05-07T03:03:30;14.85;;;12.45;;
17598;SDS011;8918;52.092;5.232;2023-05-07T03:05:56;14.77;;;12.63;;
17598;SDS011;8918;52.092;5.232;2023-05-07T03:08:22;13.93;;;12.38;;
17598;SDS011;8918;52.092;5.232;2023-05-07T03:10:47;13.30;;;11.95;;
17598;SDS011;8918;52.092;5.232;2023-05-07T03:13:13;14.07;;;12.10;;
17598;SDS011;8918;52.092;5.232;2023-05-07T03:15:39;14.02;;;12.57;;
17598;SDS011;8918;52.092;5.232;2023-05-07T03:18:04;14.00;;;12.50;;
17598;SDS011;8918;52.092;5.232;2023-05-07T03:20:30;13.57;;;12.05;;
17598;SDS011;8918;52.092;5.232;2023-05-07T03:22:55;14.13;;;12.38;;
17598;SDS011;8918;52.092;5.232;2023-05-07T03:25:21;14.15;;;12.65;;
17598;SDS011;8918;52.092;5.232;2023-05-07T03:27:47;14.25;;;12.43;;
17598;SDS011;8918;52.092;5.232;2023-05-07T03:30:13;14.30;;;12.50;;
17598;SDS011;8918;52.092;5.232;2023-05-07T03:32:38;14.20;;;12.70;;
17598;SDS011;8918;52.092;5.232;2023-05-07T03:35:04;16.17;;;13.38;;
17598;SDS011;8918;52.092;5.232;2023-05-07T03:37:30;14.38;;;12.88;;
17598;SDS011;8918;52.092;5.232;2023-05-07T03:39:56;15.18;;;13.50;;
17598;SDS011;8918;52.092;5.232;2023-05-07T03:42:22;16.13;;;14.27;;
17598;SDS011;8918;52.092;5.232;2023-05-07T03:44:47;15.32;;;13.65;;
17598;SDS011;8918;52.092;5.232;2023-05-07T03:47:13;16.10;;;14.27;;
17598;SDS011;8918;52.092;5.232;2023-05-07T03:49:39;16.95;;;14.85;;
17598;SDS011;8918;52.092;5.232;2023-05-07T03:52:05;16.75;;;15.02;;
17598;SDS011;8918;52.092;5.232;2023-05-07T03:54:31;18.20;;;14.80;;
17598;SDS011;8918;52.092;5.232;2023-05-07T03:56:56;19.20;;;15.15;;
17598;SDS011;8918;52.092;5.232;2023-05-07T03:59:22;18.05;;;16.15;;
17598;SDS011;8918;52.092;5.232;2023-05-07T04:01:47;18.27;;;16.38;;
17598;SDS011;8918;52.092;5.232;2023-05-07T04:04:13;18.20;;;16.40;;
17598;SDS011;8918;52.092;5.232;2023-05-07T04:06:39;18.52;;;16.58;;
17598;SDS011;8918;52.092;5.232;2023-05-07T04:09:05;17.87;;;15.97;;
17598;SDS011;8918;52.092;5.232;2023-05-07T04:11:31;20.13;;;18.08;;
17598;SDS011;8918;52.092;5.232;2023-05-07T04:13:57;20.55;;;18.35;;
17598;SDS011;8918;52.092;5.232;2023-05-07T04:16:22;19.88;;;17.77;;
17598;SDS011;8918;52.092;5.232;2023-05-07T04:18:48;22.55;;;18.55;;
17598;SDS011;8918;52.092;5.232;2023-05-07T04:21:14;20.20;;;18.07;;
17598;SDS011;8918;52.092;5.232;2023-05-07T04:23:40;21.20;;;18.70;;
17598;SDS011;8918;52.092;5.232;2023-05-07T04:26:06;20.13;;;18.03;;
17598;SDS011;8918;52.092;5.232;2023-05-07T04:28:32;21.90;;;19.50;;
17598;SDS011;8918;52.092;5.232;2023-05-07T04:30:57;22.30;;;19.90;;
17598;SDS011;8918;52.092;5.232;2023-05-07T04:33:23;23.27;;;19.73;;
17598;SDS011;8918;52.092;5.232;2023-05-07T04:35:48;21.10;;;18.73;;
17598;SDS011;8918;52.092;5.232;2023-05-07T04:38:14;21.00;;;18.80;;
17598;SDS011;8918;52.092;5.232;2023-05-07T04:40:40;23.23;;;20.63;;
17598;SDS011;8918;52.092;5.232;2023-05-07T04:43:06;21.98;;;19.73;;
17598;SDS011;8918;52.092;5.232;2023-05-07T04:45:32;22.00;;;19.70;;
17598;SDS011;8918;52.092;5.232;2023-05-07T04:47:58;22.15;;;19.85;;
17598;SDS011;8918;52.092;5.232;2023-05-07T04:50:23;22.55;;;20.25;;
17598;SDS011;8918;52.092;5.232;2023-05-07T04:52:49;23.50;;;20.98;;
17598;SDS011;8918;52.092;5.232;2023-05-07T04:55:15;24.63;;;20.35;;
17598;SDS011;8918;52.092;5.232;2023-05-07T04:57:41;22.27;;;19.75;;
17598;SDS011;8918;52.092;5.232;2023-05-07T05:00:07;23.67;;;20.83;;
17598;SDS011;8918;52.092;5.232;2023-05-07T05:02:36;21.10;;;18.92;;
17598;SDS011;8918;52.092;5.232;2023-05-07T05:05:02;22.77;;;20.40;;
17598;SDS011;8918;52.092;5.232;2023-05-07T05:07:27;21.83;;;19.52;;
17598;SDS011;8918;52.092;5.232;2023-05-07T05:09:53;23.60;;;20.52;;
17598;SDS011;8918;52.092;5.232;2023-05-07T05:12:20;20.65;;;18.45;;
17598;SDS011;8918;52.092;5.232;2023-05-07T05:14:45;22.45;;;19.33;;
17598;SDS011;8918;52.092;5.232;2023-05-07T05:17:12;22.73;;;20.08;;
17598;SDS011;8918;52.092;5.232;2023-05-07T05:19:37;22.48;;;19.50;;
17598;SDS011;8918;52.092;5.232;2023-05-07T05:22:03;22.60;;;20.20;;
17598;SDS011;8918;52.092;5.232;2023-05-07T05:24:29;21.15;;;18.80;;
17598;SDS011;8918;52.092;5.232;2023-05-07T05:26:55;21.35;;;19.08;;
17598;SDS011;8918;52.092;5.232;2023-05-07T05:29:21;21.17;;;18.98;;
17598;SDS011;8918;52.092;5.232;2023-05-07T05:31:46;20.77;;;18.60;;
17598;SDS011;8918;52.092;5.232;2023-05-07T05:34:12;22.20;;;19.80;;
17598;SDS011;8918;52.092;5.232;2023-05-07T05:36:38;22.52;;;18.65;;
17598;SDS011;8918;52.092;5.232;2023-05-07T05:39:03;19.23;;;17.23;;
17598;SDS011;8918;52.092;5.232;2023-05-07T05:41:29;19.95;;;17.42;;
17598;SDS011;8918;52.092;5.232;2023-05-07T05:43:55;21.83;;;18.40;;
17598;SDS011;8918;52.092;5.232;2023-05-07T05:46:21;22.02;;;18.38;;
17598;SDS011;8918;52.092;5.232;2023-05-07T05:48:46;18.67;;;16.67;;
17598;SDS011;8918;52.092;5.232;2023-05-07T05:51:12;21.02;;;18.20;;
17598;SDS011;8918;52.092;5.232;2023-05-07T05:53:37;21.83;;;18.45;;
17598;SDS011;8918;52.092;5.232;2023-05-07T05:56:03;21.10;;;18.15;;
17598;SDS011;8918;52.092;5.232;2023-05-07T05:58:29;22.88;;;18.35;;
17598;SDS011;8918;52.092;5.232;2023-05-07T06:00:55;19.10;;;16.90;;
17598;SDS011;8918;52.092;5.232;2023-05-07T06:03:21;20.30;;;18.17;;
17598;SDS011;8918;52.092;5.232;2023-05-07T06:05:47;22.17;;;18.83;;
17598;SDS011;8918;52.092;5.232;2023-05-07T06:08:12;21.73;;;18.67;;
17598;SDS011;8918;52.092;5.232;2023-05-07T06:10:38;21.08;;;18.50;;
17598;SDS011;8918;52.092;5.232;2023-05-07T06:13:04;22.45;;;18.30;;
17598;SDS011;8918;52.092;5.232;2023-05-07T06:15:30;21.60;;;18.60;;
17598;SDS011;8918;52.092;5.232;2023-05-07T06:17:55;21.60;;;18.23;;
17598;SDS011;8918;52.092;5.232;2023-05-07T06:20:22;20.92;;;17.67;;
17598;SDS011;8918;52.092;5.232;2023-05-07T06:22:48;20.30;;;18.20;;
17598;SDS011;8918;52.092;5.232;2023-05-07T06:25:14;20.38;;;18.17;;
17598;SDS011;8918;52.092;5.232;2023-05-07T06:27:40;20.25;;;17.73;;
17598;SDS011;8918;52.092;5.232;2023-05-07T06:30:05;21.02;;;18.30;;
17598;SDS011;8918;52.092;5.232;2023-05-07T06:32:32;21.10;;;18.08;;
17598;SDS011;8918;52.092;5.232;2023-05-07T06:34:57;19.58;;;17.40;;
17598;SDS011;8918;52.092;5.232;2023-05-07T06:37:23;18.33;;;16.42;;
17598;SDS011;8918;52.092;5.232;2023-05-07T06:39:48;20.00;;;17.58;;
17598;SDS011;8918;52.092;5.232;2023-05-07T06:42:14;21.02;;;17.35;;
17598;SDS011;8918;52.092;5.232;2023-05-07T06:44:40;20.38;;;17.48;;
17598;SDS011;8918;52.092;5.232;2023-05-07T06:47:05;23.70;;;17.70;;
17598;SDS011;8918;52.092;5.232;2023-05-07T06:49:31;19.05;;;16.98;;
17598;SDS011;8918;52.092;5.232;2023-05-07T06:51:57;18.98;;;16.80;;
17598;SDS011;8918;52.092;5.232;2023-05-07T06:54:23;17.60;;;15.68;;
17598;SDS011;8918;52.092;5.232;2023-05-07T06:56:48;21.20;;;17.50;;
17598;SDS011;8918;52.092;5.232;2023-05-07T06:59:14;18.40;;;16.38;;
17598;SDS011;8918;52.092;5.232;2023-05-07T07:01:40;21.13;;;17.58;;
17598;SDS011;8918;52.092;5.232;2023-05-07T07:04:06;19.20;;;17.20;;
17598;SDS011;8918;52.092;5.232;2023-05-07T07:06:31;19.63;;;17.55;;
17598;SDS011;8918;52.092;5.232;2023-05-07T07:08:57;20.50;;;18.35;;
17598;SDS011;8918;52.092;5.232;2023-05-07T07:11:23;22.58;;;18.95;;
17598;SDS011;8918;52.092;5.232;2023-05-07T07:13:49;18.90;;;16.92;;
17598;SDS011;8918;52.092;5.232;2023-05-07T07:16:15;20.17;;;17.17;;
17598;SDS011;8918;52.092;5.232;2023-05-07T07:18:41;22.00;;;18.05;;
17598;SDS011;8918;52.092;5.232;2023-05-07T07:21:07;19.13;;;17.05;;
17598;SDS011;8918;52.092;5.232;2023-05-07T07:23:32;21.13;;;18.85;;
17598;SDS011;8918;52.092;5.232;2023-05-07T07:25:58;19.67;;;17.58;;
17598;SDS011;8918;52.092;5.232;2023-05-07T07:28:23;21.60;;;17.95;;
17598;SDS011;8918;52.092;5.232;2023-05-07T07:30:49;20.75;;;18.52;;
17598;SDS011;8918;52.092;5.232;2023-05-07T07:33:15;22.08;;;18.02;;
17598;SDS011;8918;52.092;5.232;2023-05-07T07:35:40;20.58;;;17.85;;
17598;SDS011;8918;52.092;5.232;2023-05-07T07:38:06;22.58;;;18.02;;
17598;SDS011;8918;52.092;5.232;2023-05-07T07:40:34;19.67;;;17.58;;
17598;SDS011;8918;52.092;5.232;2023-05-07T07:42:59;21.17;;;17.73;;
17598;SDS011;8918;52.092;5.232;2023-05-07T07:45:26;22.00;;;18.08;;
17598;SDS011;8918;52.092;5.232;2023-05-07T07:47:51;19.67;;;17.48;;
17598;SDS011;8918;52.092;5.232;2023-05-07T07:50:17;20.55;;;18.20;;
17598;SDS011;8918;52.092;5.232;2023-05-07T07:52:43;20.33;;;17.67;;
17598;SDS011;8918;52.092;5.232;2023-05-07T07:55:09;19.92;;;17.83;;
17598;SDS011;8918;52.092;5.232;2023-05-07T07:57:34;20.55;;;17.73;;
17598;SDS011;8918;52.092;5.232;2023-05-07T08:00:00;19.38;;;17.48;;
17598;SDS011;8918;52.092;5.232;2023-05-07T08:02:26;20.52;;;18.40;;
17598;SDS011;8918;52.092;5.232;2023-05-07T08:04:51;20.30;;;17.52;;
17598;SDS011;8918;52.092;5.232;2023-05-07T08:07:17;20.13;;;17.98;;
17598;SDS011;8918;52.092;5.232;2023-05-07T08:09:45;20.42;;;17.02;;
17598;SDS011;8918;52.092;5.232;2023-05-07T08:12:11;21.17;;;17.45;;
17598;SDS011;8918;52.092;5.232;2023-05-07T08:14:36;21.90;;;18.65;;
17598;SDS011;8918;52.092;5.232;2023-05-07T08:17:02;19.92;;;17.83;;
17598;SDS011;8918;52.092;5.232;2023-05-07T08:19:28;20.52;;;17.65;;
17598;SDS011;8918;52.092;5.232;2023-05-07T08:21:54;20.33;;;17.50;;
17598;SDS011;8918;52.092;5.232;2023-05-07T08:24:20;20.00;;;17.92;;
17598;SDS011;8918;52.092;5.232;2023-05-07T08:26:45;18.17;;;16.27;;
17598;SDS011;8918;52.092;5.232;2023-05-07T08:29:11;19.90;;;17.73;;
17598;SDS011;8918;52.092;5.232;2023-05-07T08:31:37;18.70;;;16.67;;
17598;SDS011;8918;52.092;5.232;2023-05-07T08:34:06;18.75;;;16.80;;
17598;SDS011;8918;52.092;5.232;2023-05-07T08:36:32;20.08;;;16.20;;
17598;SDS011;8918;52.092;5.232;2023-05-07T08:38:58;18.35;;;16.38;;
17598;SDS011;8918;52.092;5.232;2023-05-07T08:41:24;19.52;;;16.77;;
17598;SDS011;8918;52.092;5.232;2023-05-07T08:43:50;18.83;;;16.50;;
17598;SDS011;8918;52.092;5.232;2023-05-07T08:46:19;17.88;;;16.02;;
17598;SDS011;8918;52.092;5.232;2023-05-07T08:48:50;19.02;;;17.02;;
17598;SDS011;8918;52.092;5.232;2023-05-07T08:51:17;19.88;;;17.52;;
17598;SDS011;8918;52.092;5.232;2023-05-07T08:53:44;19.00;;;16.98;;
17598;SDS011;8918;52.092;5.232;2023-05-07T08:56:11;19.67;;;17.55;;
17598;SDS011;8918;52.092;5.232;2023-05-07T08:58:37;19.52;;;17.50;;
17598;SDS011;8918;52.092;5.232;2023-05-07T09:01:09;21.83;;;19.13;;
17598;SDS011;8918;52.092;5.232;2023-05-07T09:03:38;18.73;;;16.83;;
17598;SDS011;8918;52.092;5.232;2023-05-07T09:06:04;18.10;;;16.25;;
17598;SDS011;8918;52.092;5.232;2023-05-07T09:08:31;20.73;;;17.75;;
17598;SDS011;8918;52.092;5.232;2023-05-07T09:10:58;18.98;;;17.02;;
17598;SDS011;8918;52.092;5.232;2023-05-07T09:13:24;18.00;;;16.05;;
17598;SDS011;8918;52.092;5.232;2023-05-07T09:15:50;19.13;;;17.13;;
17598;SDS011;8918;52.092;5.232;2023-05-07T09:18:16;18.80;;;16.85;;
17598;SDS011;8918;52.092;5.232;2023-05-07T09:20:41;18.83;;;16.25;;
17598;SDS011;8918;52.092;5.232;2023-05-07T09:23:07;18.90;;;16.25;;
17598;SDS011;8918;52.092;5.232;2023-05-07T09:25:33;19.58;;;15.93;;
17598;SDS011;8918;52.092;5.232;2023-05-07T09:28:00;17.73;;;15.77;;
17598;SDS011;8918;52.092;5.232;2023-05-07T09:30:27;17.27;;;15.48;;
17598;SDS011;8918;52.092;5.232;2023-05-07T09:33:00;16.98;;;15.27;;
17598;SDS011;8918;52.092;5.232;2023-05-07T09:35:28;17.65;;;15.85;;
17598;SDS011;8918;52.092;5.232;2023-05-07T09:37:54;19.77;;;17.15;;
17598;SDS011;8918;52.092;5.232;2023-05-07T09:40:22;17.58;;;15.45;;
17598;SDS011;8918;52.092;5.232;2023-05-07T09:42:49;18.15;;;16.25;;
17598;SDS011;8918;52.092;5.232;2023-05-07T09:45:28;14.52;;;13.02;;
17598;SDS011;8918;52.092;5.232;2023-05-07T09:47:54;13.88;;;12.38;;
17598;SDS011;8918;52.092;5.232;2023-05-07T09:50:24;13.77;;;11.48;;
17598;SDS011;8918;52.092;5.232;2023-05-07T09:52:53;12.55;;;11.25;;
17598;SDS011;8918;52.092;5.232;2023-05-07T09:55:20;14.15;;;10.80;;
17598;SDS011;8918;52.092;5.232;2023-05-07T09:57:46;10.80;;;9.55;;
17598;SDS011;8918;52.092;5.232;2023-05-07T10:00:15;8.70;;;7.80;;
17598;SDS011;8918;52.092;5.232;2023-05-07T10:02:43;8.80;;;7.60;;
17598;SDS011;8918;52.092;5.232;2023-05-07T10:05:13;9.77;;;7.20;;
17598;SDS011;8918;52.092;5.232;2023-05-07T10:07:40;8.48;;;6.10;;
17598;SDS011;8918;52.092;5.232;2023-05-07T10:10:06;7.47;;;6.70;;
17598;SDS011;8918;52.092;5.232;2023-05-07T10:12:32;7.65;;;6.75;;
17598;SDS011;8918;52.092;5.232;2023-05-07T10:15:04;8.20;;;6.82;;
17598;SDS011;8918;52.092;5.232;2023-05-07T10:17:30;8.07;;;7.00;;
17598;SDS011;8918;52.092;5.232;2023-05-07T10:19:56;7.95;;;6.68;;
17598;SDS011;8918;52.092;5.232;2023-05-07T10:22:22;8.48;;;7.20;;
17598;SDS011;8918;52.092;5.232;2023-05-07T10:24:50;7.60;;;6.80;;
17598;SDS011;8918;52.092;5.232;2023-05-07T10:27:19;8.27;;;6.78;;
17598;SDS011;8918;52.092;5.232;2023-05-07T10:32:39;9.52;;;8.00;;
17598;SDS011;8918;52.092;5.232;2023-05-07T10:35:32;8.70;;;7.65;;
17598;SDS011;8918;52.092;5.232;2023-05-07T10:38:05;9.52;;;7.47;;
17598;SDS011;8918;52.092;5.232;2023-05-07T10:40:31;11.27;;;8.27;;
17598;SDS011;8918;52.092;5.232;2023-05-07T10:42:58;8.90;;;8.00;;
17598;SDS011;8918;52.092;5.232;2023-05-07T10:45:26;9.93;;;8.55;;
17598;SDS011;8918;52.092;5.232;2023-05-07T10:48:11;9.80;;;8.80;;
17598;SDS011;8918;52.092;5.232;2023-05-07T10:50:42;10.15;;;8.18;;
17598;SDS011;8918;52.092;5.232;2023-05-07T10:55:49;10.23;;;8.10;;
17598;SDS011;8918;52.092;5.232;2023-05-07T10:58:29;10.00;;;8.98;;
17598;SDS011;8918;52.092;5.232;2023-05-07T11:00:57;9.98;;;8.75;;
17598;SDS011;8918;52.092;5.232;2023-05-07T11:03:27;9.63;;;8.25;;
17598;SDS011;8918;52.092;5.232;2023-05-07T11:06:09;10.32;;;7.70;;
17598;SDS011;8918;52.092;5.232;2023-05-07T11:08:57;10.50;;;8.90;;
17598;SDS011;8918;52.092;5.232;2023-05-07T11:14:11;10.00;;;8.93;;
17598;SDS011;8918;52.092;5.232;2023-05-07T11:16:36;9.43;;;7.88;;
17598;SDS011;8918;52.092;5.232;2023-05-07T11:19:03;11.88;;;9.55;;
17598;SDS011;8918;52.092;5.232;2023-05-07T11:21:36;11.18;;;9.93;;
17598;SDS011;8918;52.092;5.232;2023-05-07T11:24:06;14.00;;;11.68;;
17598;SDS011;8918;52.092;5.232;2023-05-07T11:26:45;12.82;;;10.30;;
17598;SDS011;8918;52.092;5.232;2023-05-07T11:29:15;12.73;;;11.50;;
17598;SDS011;8918;52.092;5.232;2023-05-07T11:31:42;12.02;;;10.80;;
17598;SDS011;8918;52.092;5.232;2023-05-07T11:34:08;12.23;;;10.93;;
17598;SDS011;8918;52.092;5.232;2023-05-07T11:36:34;11.82;;;9.40;;
17598;SDS011;8918;52.092;5.232;2023-05-07T11:39:05;12.23;;;10.63;;
17598;SDS011;8918;52.092;5.232;2023-05-07T11:41:47;12.88;;;11.10;;
17598;SDS011;8918;52.092;5.232;2023-05-07T11:44:13;12.20;;;9.60;;
17598;SDS011;8918;52.092;5.232;2023-05-07T11:46:42;11.75;;;10.30;;
17598;SDS011;8918;52.092;5.232;2023-05-07T11:49:09;13.38;;;11.13;;
17598;SDS011;8918;52.092;5.232;2023-05-07T11:51:35;12.93;;;11.23;;
17598;SDS011;8918;52.092;5.232;2023-05-07T11:54:00;11.98;;;10.63;;
17598;SDS011;8918;52.092;5.232;2023-05-07T11:56:28;11.40;;;10.20;;
17598;SDS011;8918;52.092;5.232;2023-05-07T11:58:54;13.90;;;11.30;;
17598;SDS011;8918;52.092;5.232;2023-05-07T12:01:20;11.73;;;10.18;;
17598;SDS011;8918;52.092;5.232;2023-05-07T12:03:45;11.43;;;10.32;;
17598;SDS011;8918;52.092;5.232;2023-05-07T12:06:12;12.35;;;10.20;;
17598;SDS011;8918;52.092;5.232;2023-05-07T12:08:40;12.43;;;9.82;;
17598;SDS011;8918;52.092;5.232;2023-05-07T12:11:06;11.02;;;9.70;;
17598;SDS011;8918;52.092;5.232;2023-05-07T12:13:34;12.50;;;11.18;;
17598;SDS011;8918;52.092;5.232;2023-05-07T12:16:00;12.52;;;10.95;;
17598;SDS011;8918;52.092;5.232;2023-05-07T12:18:28;12.38;;;11.15;;
17598;SDS011;8918;52.092;5.232;2023-05-07T12:20:54;13.25;;;11.80;;
17598;SDS011;8918;52.092;5.232;2023-05-07T12:23:20;13.93;;;12.35;;
17598;SDS011;8918;52.092;5.232;2023-05-07T12:25:46;14.30;;;11.70;;
17598;SDS011;8918;52.092;5.232;2023-05-07T12:28:15;16.58;;;13.70;;
17598;SDS011;8918;52.092;5.232;2023-05-07T12:30:42;13.90;;;12.60;;
17598;SDS011;8918;52.092;5.232;2023-05-07T12:33:09;12.70;;;11.38;;
17598;SDS011;8918;52.092;5.232;2023-05-07T12:35:36;13.35;;;12.00;;
17598;SDS011;8918;52.092;5.232;2023-05-07T12:38:07;13.18;;;11.95;;
17598;SDS011;8918;52.092;5.232;2023-05-07T12:43:04;12.90;;;11.40;;
17598;SDS011;8918;52.092;5.232;2023-05-07T12:45:30;14.77;;;13.38;;
17598;SDS011;8918;52.092;5.232;2023-05-07T12:47:55;13.38;;;12.07;;
17598;SDS011;8918;52.092;5.232;2023-05-07T12:50:25;12.75;;;11.52;;
17598;SDS011;8918;52.092;5.232;2023-05-07T12:52:55;16.10;;;13.20;;
17598;SDS011;8918;52.092;5.232;2023-05-07T12:55:21;17.08;;;14.65;;
17598;SDS011;8918;52.092;5.232;2023-05-07T12:57:50;16.02;;;14.25;;
17598;SDS011;8918;52.092;5.232;2023-05-07T13:00:16;15.43;;;13.93;;
17598;SDS011;8918;52.092;5.232;2023-05-07T13:02:42;17.20;;;14.13;;
17598;SDS011;8918;52.092;5.232;2023-05-07T13:05:11;16.05;;;14.45;;
17598;SDS011;8918;52.092;5.232;2023-05-07T13:07:37;15.98;;;14.38;;
17598;SDS011;8918;52.092;5.232;2023-05-07T13:10:03;15.60;;;14.10;;
17598;SDS011;8918;52.092;5.232;2023-05-07T13:12:29;14.27;;;12.90;;
17598;SDS011;8918;52.092;5.232;2023-05-07T13:14:55;13.13;;;11.70;;
17598;SDS011;8918;52.092;5.232;2023-05-07T13:17:20;11.10;;;9.88;;
17598;SDS011;8918;52.092;5.232;2023-05-07T13:19:46;12.02;;;10.02;;
17598;SDS011;8918;52.092;5.232;2023-05-07T13:22:11;10.73;;;9.13;;
17598;SDS011;8918;52.092;5.232;2023-05-07T13:24:37;9.30;;;8.40;;
17598;SDS011;8918;52.092;5.232;2023-05-07T13:27:03;11.05;;;8.35;;
17598;SDS011;8918;52.092;5.232;2023-05-07T13:29:28;9.30;;;7.32;;
17598;SDS011;8918;52.092;5.232;2023-05-07T13:31:56;7.38;;;6.38;;
17598;SDS011;8918;52.092;5.232;2023-05-07T13:34:22;7.63;;;5.80;;
17598;SDS011;8918;52.092;5.232;2023-05-07T13:36:47;5.93;;;5.40;;
17598;SDS011;8918;52.092;5.232;2023-05-07T13:39:13;7.65;;;5.30;;
17598;SDS011;8918;52.092;5.232;2023-05-07T13:41:39;6.38;;;4.68;;
17598;SDS011;8918;52.092;5.232;2023-05-07T13:44:04;5.05;;;4.13;;
17598;SDS011;8918;52.092;5.232;2023-05-07T13:46:30;5.15;;;3.60;;
17598;SDS011;8918;52.092;5.232;2023-05-07T13:48:56;7.07;;;4.00;;
17598;SDS011;8918;52.092;5.232;2023-05-07T13:51:22;5.35;;;3.25;;
17598;SDS011;8918;52.092;5.232;2023-05-07T13:53:48;4.88;;;3.50;;
17598;SDS011;8918;52.092;5.232;2023-05-07T13:56:13;3.72;;;2.85;;
17598;SDS011;8918;52.092;5.232;2023-05-07T13:58:40;5.57;;;2.60;;
17598;SDS011;8918;52.092;5.232;2023-05-07T14:01:05;5.03;;;2.80;;
17598;SDS011;8918;52.092;5.232;2023-05-07T14:03:31;5.22;;;3.20;;
17598;SDS011;8918;52.092;5.232;2023-05-07T14:05:58;3.75;;;2.50;;
17598;SDS011;8918;52.092;5.232;2023-05-07T14:08:25;8.32;;;4.10;;
17598;SDS011;8918;52.092;5.232;2023-05-07T14:10:50;5.68;;;4.68;;
17598;SDS011;8918;52.092;5.232;2023-05-07T14:13:16;6.25;;;4.38;;
17598;SDS011;8918;52.092;5.232;2023-05-07T14:15:42;6.40;;;4.40;;
17598;SDS011;8918;52.092;5.232;2023-05-07T14:18:11;5.57;;;3.85;;
17598;SDS011;8918;52.092;5.232;2023-05-07T14:20:37;5.43;;;3.83;;
17598;SDS011;8918;52.092;5.232;2023-05-07T14:23:03;6.28;;;3.67;;
17598;SDS011;8918;52.092;5.232;2023-05-07T14:25:28;5.43;;;3.60;;
17598;SDS011;8918;52.092;5.232;2023-05-07T14:27:54;6.05;;;3.40;;
17598;SDS011;8918;52.092;5.232;2023-05-07T14:30:19;6.95;;;4.97;;
17598;SDS011;8918;52.092;5.232;2023-05-07T14:32:47;7.80;;;5.88;;
17598;SDS011;8918;52.092;5.232;2023-05-07T14:35:13;6.82;;;5.60;;
17598;SDS011;8918;52.092;5.232;2023-05-07T14:37:39;6.28;;;5.68;;
17598;SDS011;8918;52.092;5.232;2023-05-07T14:40:05;8.13;;;7.20;;
17598;SDS011;8918;52.092;5.232;2023-05-07T14:42:31;7.63;;;6.78;;
17598;SDS011;8918;52.092;5.232;2023-05-07T14:44:57;9.23;;;7.30;;